Time;durP1;ratioP1;P1;durP2;ratioP2;P2;SDS_P1;SDS_P2;PMS_P1;PMS_P2;Temp;Humidity;BMP_temperature;BMP_pressure;BME280_temperature;BME280_humidity;BME280_pressure;Samples;Min_cycle;Max_cycle;Signal;HPM_P1;HPM_P2
2022/04/11 00:01:18;;;;;;;4.00;2.20;;;;;;;0.67;96.69;101333.40;104853;1274;61210;-73
2022/04/11 00:03:44;;;;;;;5.10;2.50;;;;;;;0.62;96.83;101332.16;104763;1277;74996;-71
2022/04/11 00:06:11;;;;;;;4.40;2.60;;;;;;;0.58;97.36;101333.13;104879;1274;72359;-71
2022/04/11 00:08:38;;;;;;;5.80;2.50;;;;;;;0.54;97.60;101329.54;104821;1274;62413;-70
2022/04/11 00:11:08;;;;;;;5.30;2.80;;;;;;;0.51;97.91;101328.16;104844;1274;62441;-72
2022/04/11 00:13:34;;;;;;;6.50;2.40;;;;;;;0.49;97.84;101329.13;104868;1274;61301;-68
2022/04/11 00:16:01;;;;;;;4.70;2.10;;;;;;;0.46;97.76;101326.91;104836;1275;74740;-72
2022/04/11 00:18:28;;;;;;;4.00;1.70;;;;;;;0.43;97.82;101327.61;104861;1274;72456;-70
2022/04/11 00:20:55;;;;;;;5.30;2.30;;;;;;;0.40;98.01;101327.95;104885;1274;74552;-71
2022/04/11 00:23:22;;;;;;;5.90;2.90;;;;;;;0.38;98.41;101324.58;104842;1274;62081;-71
2022/04/11 00:25:49;;;;;;;5.60;2.70;;;;;;;0.37;98.57;101326.17;104879;1275;61444;-69
2022/04/11 00:28:18;;;;;;;4.00;2.20;;;;;;;0.36;98.74;101328.86;104855;1274;61851;-69
2022/04/11 00:30:44;;;;;;;9.00;2.80;;;;;;;0.34;98.69;101326.70;104831;1275;71036;-70
2022/04/11 00:33:11;;;;;;;5.20;2.60;;;;;;;0.33;98.65;101329.94;104787;1277;72034;-68
2022/04/11 00:35:38;;;;;;;6.70;3.00;;;;;;;0.32;99.05;101327.89;104851;1274;61436;-72
2022/04/11 00:38:04;;;;;;;5.80;3.10;;;;;;;0.33;99.88;101328.00;104862;1274;61093;-72
2022/04/11 00:40:31;;;;;;;5.90;2.80;;;;;;;0.36;100.00;101326.95;104857;1274;74914;-72
2022/04/11 00:42:58;;;;;;;10.00;3.40;;;;;;;0.39;100.00;101325.53;104876;1274;70638;-73
2022/04/11 00:45:37;;;;;;;;;;;;;;;;;;;;;
2022/04/11 00:48:04;;;;;;;6.60;3.40;;;;;;;0.46;100.00;101325.64;104927;1274;61388;-71
2022/04/11 00:50:31;;;;;;;7.20;3.00;;;;;;;0.47;100.00;101321.23;104807;1277;61176;-73
2022/04/11 00:53:00;;;;;;;4.80;2.60;;;;;;;0.49;100.00;101324.47;104856;1274;76172;-71
2022/04/11 00:55:29;;;;;;;5.60;2.60;;;;;;;0.51;100.00;101324.31;104859;1275;71667;-71
2022/04/11 00:57:56;;;;;;;5.80;2.70;;;;;;;0.52;100.00;101319.40;104861;1274;73955;-71
2022/04/11 01:00:22;;;;;;;4.60;2.60;;;;;;;0.53;100.00;101323.81;104866;1274;61273;-68
2022/04/11 01:02:49;;;;;;;7.90;2.80;;;;;;;0.55;100.00;101322.70;104870;1274;61221;-68
2022/04/11 01:05:16;;;;;;;8.40;2.80;;;;;;;0.56;100.00;101321.93;104886;1274;74627;-71
2022/04/11 01:07:43;;;;;;;4.70;2.60;;;;;;;0.56;99.92;101323.81;104890;1274;71351;-72
2022/04/11 01:10:11;;;;;;;7.00;2.60;;;;;;;0.53;99.46;101319.48;104753;1277;73248;-69
2022/04/11 01:12:39;;;;;;;6.10;2.50;;;;;;;0.49;99.10;101325.81;104721;1277;61400;-71
2022/04/11 01:15:06;;;;;;;7.70;3.00;;;;;;;0.44;98.83;101323.21;104870;1274;61672;-70
2022/04/11 01:17:38;;;;;;;7.90;2.70;;;;;;;0.38;98.72;101320.21;104869;1274;75418;-71
2022/04/11 01:20:11;;;;;;;4.90;2.70;;;;;;;0.32;98.52;101320.27;104944;1275;72445;-69
2022/04/11 01:22:39;;;;;;;3.80;2.20;;;;;;;0.26;98.57;101321.30;104718;1277;72967;-73
2022/04/11 01:25:07;;;;;;;4.10;2.30;;;;;;;0.20;98.65;101322.69;104773;1277;61449;-71
2022/04/11 01:27:34;;;;;;;5.20;2.70;;;;;;;0.17;99.24;101324.60;104852;1275;61536;-71
2022/04/11 01:30:00;;;;;;;5.00;2.20;;;;;;;0.15;99.32;101324.21;104889;1274;74622;-70
2022/04/11 01:32:28;;;;;;;7.30;3.00;;;;;;;0.14;99.40;101326.92;104912;1274;71181;-71
2022/04/11 01:35:25;;;;;;;4.60;2.40;;;;;;;0.10;99.27;101322.44;104863;1274;72843;-71
2022/04/11 01:37:52;;;;;;;8.30;2.20;;;;;;;0.07;99.26;101319.85;104877;1274;61936;-71
2022/04/11 01:40:20;;;;;;;6.30;2.60;;;;;;;0.04;99.62;101321.77;104929;1274;61459;-72
2022/04/11 01:42:47;;;;;;;6.40;2.90;;;;;;;0.02;99.86;101323.27;104843;1274;76249;-72
2022/04/11 01:45:14;;;;;;;7.40;3.00;;;;;;;0.02;99.97;101321.73;104857;1274;72389;-71
2022/04/11 01:47:44;;;;;;;7.20;2.90;;;;;;;0.02;100.00;101318.90;104837;1275;73016;-70
2022/04/11 01:50:11;;;;;;;8.20;3.00;;;;;;;0.05;100.00;101321.88;104850;1275;61420;-70
2022/04/11 01:52:38;;;;;;;8.00;2.90;;;;;;;0.07;100.00;101317.92;104760;1274;61352;-72
2022/04/11 01:55:05;;;;;;;8.70;2.90;;;;;;;0.09;100.00;101314.00;104776;1276;74933;-69
2022/04/11 01:57:47;;;;;;;8.60;3.30;;;;;;;0.11;100.00;101316.79;104828;1275;71397;-71
2022/04/11 02:00:14;;;;;;;6.20;3.00;;;;;;;0.14;100.00;101314.39;104829;1274;72998;-72
2022/04/11 02:02:41;;;;;;;9.10;3.70;;;;;;;0.15;100.00;101312.04;104883;1274;62536;-72
2022/04/11 02:05:08;;;;;;;11.80;3.60;;;;;;;0.17;100.00;101308.27;104883;1275;61249;-69
2022/04/11 02:07:35;;;;;;;7.10;3.70;;;;;;;0.19;100.00;101308.35;104871;1275;76035;-72
2022/04/11 02:10:04;;;;;;;8.50;3.80;;;;;;;0.19;100.00;101306.42;104814;1277;61346;-73
2022/04/11 02:12:30;;;;;;;8.60;3.80;;;;;;;0.18;99.98;101304.73;104926;1274;73048;-72
2022/04/11 02:14:57;;;;;;;9.50;3.00;;;;;;;0.18;99.97;101302.45;104859;1274;61259;-72
2022/04/11 02:17:33;;;;;;;7.50;3.70;;;;;;;0.17;99.87;101303.06;104866;1274;61219;-71
2022/04/11 02:19:59;;;;;;;8.20;3.10;;;;;;;0.15;99.74;101304.55;104784;1275;76014;-70
2022/04/11 02:22:26;;;;;;;5.80;2.70;;;;;;;0.14;99.71;101303.77;104856;1275;71521;-72
2022/04/11 02:24:52;;;;;;;4.20;2.30;;;;;;;0.14;99.79;101303.58;104804;1275;73980;-71
2022/04/11 02:27:22;;;;;;;3.90;2.40;;;;;;;0.13;99.77;101301.91;104852;1274;61386;-72
2022/04/11 02:29:51;;;;;;;3.00;1.90;;;;;;;0.11;99.53;101299.23;104786;1275;61269;-69
2022/04/11 02:32:18;;;;;;;6.80;2.80;;;;;;;0.09;99.65;101295.52;104864;1275;76158;-71
2022/04/11 02:34:49;;;;;;;6.30;3.00;;;;;;;0.08;99.46;101295.77;104836;1275;71488;-70
2022/04/11 02:37:15;;;;;;;8.00;3.40;;;;;;;0.05;99.60;101289.86;104878;1274;72993;-72
2022/04/11 02:39:42;;;;;;;4.80;2.60;;;;;;;0.05;99.39;101289.92;104801;1275;62330;-71
2022/04/11 02:42:08;;;;;;;4.70;1.90;;;;;;;0.04;99.39;101292.75;104832;1274;61283;-69
2022/04/11 02:44:35;;;;;;;5.10;2.70;;;;;;;0.03;99.41;101292.23;104736;1275;73677;-70
2022/04/11 02:47:02;;;;;;;7.30;2.70;;;;;;;0.03;99.36;101285.85;104789;1276;61254;-71
2022/04/11 02:49:28;;;;;;;3.40;2.20;;;;;;;0.03;99.22;101284.83;104868;1274;73200;-71
2022/04/11 02:51:55;;;;;;;3.80;2.10;;;;;;;0.04;99.39;101280.75;101041;1274;5217261;-70
2022/04/11 02:54:21;;;;;;;3.70;2.40;;;;;;;0.05;99.26;101278.05;104844;1275;61256;-72
2022/04/11 02:56:48;;;;;;;7.20;2.60;;;;;;;0.06;99.20;101279.73;104820;1275;61649;-71
2022/04/11 02:59:15;;;;;;;7.00;2.70;;;;;;;0.08;99.25;101277.73;104875;1277;61365;-72
2022/04/11 03:01:42;;;;;;;6.10;2.40;;;;;;;0.10;99.13;101275.67;104877;1275;61255;-73
2022/04/11 03:04:11;;;;;;;6.00;2.60;;;;;;;0.12;99.06;101277.83;104866;1275;61274;-71
2022/04/11 03:06:41;;;;;;;5.80;2.60;;;;;;;0.13;99.02;101275.84;104813;1277;61773;-72
2022/04/11 03:09:08;;;;;;;5.30;2.40;;;;;;;0.15;99.08;101277.75;104911;1277;74911;-71
2022/04/11 03:11:35;;;;;;;5.30;2.80;;;;;;;0.18;99.12;101273.10;104874;1275;71412;-70
2022/04/11 03:14:30;;;;;;;7.80;2.90;;;;;;;0.20;98.97;101276.76;104860;1275;73065;-68
2022/04/11 03:16:56;;;;;;;4.90;2.30;;;;;;;0.24;99.17;101276.57;104851;1275;61765;-70
2022/04/11 03:19:25;;;;;;;4.50;2.70;;;;;;;0.28;99.20;101279.80;104878;1277;61403;-73
2022/04/11 03:21:52;;;;;;;3.70;2.40;;;;;;;0.32;99.24;101275.58;104938;1275;75118;-72
2022/04/11 03:24:18;;;;;;;5.40;2.60;;;;;;;0.35;99.03;101275.01;104859;1274;71337;-70
2022/04/11 03:26:45;;;;;;;3.30;1.80;;;;;;;0.36;98.79;101273.17;104860;1275;73958;-71
2022/04/11 03:29:14;;;;;;;5.80;2.00;;;;;;;0.38;98.79;101267.67;104853;1275;62531;-72
2022/04/11 03:31:41;;;;;;;3.60;2.00;;;;;;;0.40;98.70;101267.40;104736;1276;61955;-70
2022/04/11 03:34:08;;;;;;;4.90;2.00;;;;;;;0.43;98.81;101267.60;104841;1275;75867;-72
2022/04/11 03:36:35;;;;;;;5.00;1.90;;;;;;;0.45;98.77;101263.98;104871;1275;72600;-71
2022/04/11 03:39:01;;;;;;;3.40;2.10;;;;;;;0.46;98.63;101265.97;104873;1274;72978;-72
2022/04/11 03:41:29;;;;;;;3.60;2.10;;;;;;;0.48;98.50;101264.48;104854;1277;61450;-68
2022/04/11 03:43:55;;;;;;;5.40;2.50;;;;;;;0.50;98.42;101264.19;104877;1275;61812;-71
2022/04/11 03:46:22;;;;;;;4.50;2.50;;;;;;;0.51;98.28;101263.77;104872;1274;76113;-70
2022/04/11 03:48:49;;;;;;;4.30;1.80;;;;;;;0.53;98.30;101266.27;104901;1274;71405;-70
2022/04/11 03:51:17;;;;;;;3.30;2.50;;;;;;;0.53;98.21;101263.45;104853;1277;72587;-71
2022/04/11 03:53:44;;;;;;;4.00;2.30;;;;;;;0.54;98.10;101262.52;104778;1277;62501;-70
2022/04/11 03:56:14;;;;;;;4.80;2.30;;;;;;;0.55;98.11;101265.06;104740;1277;62765;-71
2022/04/11 03:58:41;;;;;;;2.60;1.60;;;;;;;0.56;97.93;101267.44;104930;1274;75800;-71
2022/04/11 04:01:10;;;;;;;4.90;2.50;;;;;;;0.56;97.89;101267.95;104861;1274;71392;-71
2022/04/11 04:03:37;;;;;;;5.40;2.70;;;;;;;0.58;97.88;101271.88;104776;1277;74344;-72
2022/04/11 04:06:13;;;;;;;6.70;3.30;;;;;;;0.58;97.90;101273.80;104850;1277;61622;-71
2022/04/11 04:08:42;;;;;;;4.80;3.20;;;;;;;0.58;97.88;101277.90;104866;1277;61244;-71
2022/04/11 04:11:12;;;;;;;6.30;3.10;;;;;;;0.60;98.07;101281.65;104676;1276;76191;-71
2022/04/11 04:13:39;;;;;;;8.00;3.10;;;;;;;0.60;97.95;101282.13;104789;1276;72634;-71
2022/04/11 04:16:11;;;;;;;5.60;2.50;;;;;;;0.61;97.80;101278.25;104841;1275;61306;-70
2022/04/11 04:18:38;;;;;;;7.10;2.60;;;;;;;0.62;97.74;101280.98;104864;1275;61641;-70
2022/04/11 04:21:11;;;;;;;5.90;3.10;;;;;;;0.63;97.85;101280.91;104914;1274;61361;-70
2022/04/11 04:23:38;;;;;;;8.50;2.80;;;;;;;0.65;97.88;101276.98;104836;1275;74974;-71
2022/04/11 04:26:10;;;;;;;6.40;3.00;;;;;;;0.67;97.66;101279.30;104885;1274;72372;-71
2022/04/11 04:28:37;;;;;;;8.30;3.40;;;;;;;0.69;97.59;101279.50;104860;1275;73024;-70
2022/04/11 04:31:10;;;;;;;4.40;2.50;;;;;;;0.72;97.48;101283.68;104854;1277;61330;-71
2022/04/11 04:33:37;;;;;;;8.20;2.80;;;;;;;0.74;97.16;101280.54;104752;1275;61691;-69
2022/04/11 04:36:10;;;;;;;8.20;2.60;;;;;;;0.78;97.10;101279.64;104893;1274;77029;-71
2022/04/11 04:38:37;;;;;;;7.10;2.80;;;;;;;0.81;96.85;101281.00;104800;1275;71704;-70
2022/04/11 04:41:13;;;;;;;4.90;3.10;;;;;;;0.85;96.73;101282.50;105008;1275;73974;-70
2022/04/11 04:43:39;;;;;;;6.00;3.40;;;;;;;0.89;96.49;101281.23;105060;1274;62447;-70
2022/04/11 04:46:12;;;;;;;3.90;2.60;;;;;;;0.92;96.25;101277.33;105011;1275;61670;-69
2022/04/11 04:48:39;;;;;;;4.70;2.40;;;;;;;0.98;96.04;101280.65;105158;1275;74931;-69
2022/04/11 04:51:16;;;;;;;6.40;2.50;;;;;;;1.02;95.90;101281.05;105141;1277;71154;-72
2022/04/11 04:53:42;;;;;;;5.80;3.10;;;;;;;1.07;95.45;101281.80;105166;1274;73192;-71
2022/04/11 04:56:12;;;;;;;4.90;2.70;;;;;;;1.12;95.31;101279.02;105005;1275;61244;-73
2022/04/11 04:58:38;;;;;;;4.70;2.30;;;;;;;1.17;94.91;101279.95;104813;1274;61230;-74
2022/04/11 05:01:13;;;;;;;4.00;2.10;;;;;;;1.21;94.68;101279.48;104811;1277;74986;-70
2022/04/11 05:03:42;;;;;;;4.20;2.70;;;;;;;1.29;93.97;101278.31;104888;1274;72139;-71
2022/04/11 05:06:22;;;;;;;9.20;2.70;;;;;;;1.36;93.75;101283.08;104688;1277;73424;-71
2022/04/11 05:08:49;;;;;;;4.70;2.10;;;;;;;1.44;93.00;101279.57;104857;1275;61397;-72
2022/04/11 05:11:21;;;;;;;4.70;2.40;;;;;;;1.51;92.49;101280.13;104825;1275;61944;-71
2022/04/11 05:13:48;;;;;;;5.50;2.10;;;;;;;1.59;91.48;101278.70;104883;1275;74820;-69
2022/04/11 05:16:24;;;;;;;4.60;2.00;;;;;;;1.69;91.08;101281.94;104854;1274;70363;-72
2022/04/11 05:18:51;;;;;;;4.80;2.60;;;;;;;1.75;90.51;101282.04;104812;1275;71750;-69
2022/04/11 05:21:25;;;;;;;3.90;2.30;;;;;;;1.81;89.84;101282.47;104727;1275;62464;-71
2022/04/11 05:23:51;;;;;;;4.00;2.50;;;;;;;1.87;89.39;101277.55;104802;1277;61269;-72
2022/04/11 05:26:24;;;;;;;3.80;2.30;;;;;;;1.93;89.19;101279.06;104846;1274;74838;-72
2022/04/11 05:28:50;;;;;;;7.50;2.80;;;;;;;1.97;88.73;101277.18;104879;1274;71249;-71
2022/04/11 05:31:25;;;;;;;4.00;2.30;;;;;;;2.03;88.58;101278.58;104850;1275;61352;-73
2022/04/11 05:33:52;;;;;;;5.20;2.20;;;;;;;2.09;88.26;101282.17;105047;1274;61269;-73
2022/04/11 05:36:28;;;;;;;4.90;2.40;;;;;;;2.16;88.47;101278.38;104845;1275;61358;-72
2022/04/11 05:38:55;;;;;;;3.50;1.60;;;;;;;2.23;87.86;101280.12;104858;1274;76042;-71
2022/04/11 05:41:28;;;;;;;7.50;2.70;;;;;;;2.31;87.40;101280.50;104764;1275;71432;-71
2022/04/11 05:43:55;;;;;;;5.50;1.90;;;;;;;2.38;87.06;101282.05;104916;1276;72966;-68
2022/04/11 05:46:21;;;;;;;3.80;2.20;;;;;;;2.45;86.59;101284.59;104848;1274;61366;-70
2022/04/11 05:48:48;;;;;;;7.30;2.40;;;;;;;2.52;86.09;101290.02;104903;1275;61186;-69
2022/04/11 05:51:29;;;;;;;5.50;2.80;;;;;;;2.58;85.53;101284.36;104860;1274;74641;-72
2022/04/11 05:53:56;;;;;;;3.70;2.40;;;;;;;2.64;84.95;101284.21;104886;1274;71653;-69
2022/04/11 05:56:35;;;;;;;4.50;2.10;;;;;;;2.71;83.95;101282.36;104806;1277;73030;-68
2022/04/11 05:59:03;;;;;;;5.60;2.10;;;;;;;2.78;84.02;101283.45;104856;1275;61292;-70
2022/04/11 06:01:31;;;;;;;5.70;2.30;;;;;;;2.84;83.72;101287.71;104871;1274;61489;-69
2022/04/11 06:03:58;;;;;;;5.50;2.20;;;;;;;2.92;83.23;101291.92;104823;1277;74967;-71
2022/04/11 06:06:26;;;;;;;5.20;2.50;;;;;;;2.98;82.44;101291.29;104880;1274;71294;-70
2022/04/11 06:08:52;;;;;;;6.20;2.60;;;;;;;3.04;82.59;101287.15;104851;1274;72494;-71
2022/04/11 06:11:26;;;;;;;3.50;2.40;;;;;;;3.11;82.62;101292.60;104867;1274;61285;-72
2022/04/11 06:13:52;;;;;;;4.20;2.50;;;;;;;3.19;82.28;101292.33;104904;1275;61252;-71
2022/04/11 06:16:22;;;;;;;4.00;2.60;;;;;;;3.28;82.78;101295.23;104794;1275;74951;-72
2022/04/11 06:18:48;;;;;;;6.80;2.60;;;;;;;3.35;82.51;101297.52;104764;1277;72152;-71
2022/04/11 06:21:21;;;;;;;4.10;2.80;;;;;;;3.41;81.80;101297.23;104853;1274;61369;-71
2022/04/11 06:23:47;;;;;;;3.60;1.90;;;;;;;3.45;81.21;101294.80;104866;1274;61457;-67
2022/04/11 06:26:40;;;;;;;5.60;2.60;;;;;;;3.52;81.28;101291.52;104862;1274;61250;-70
2022/04/11 06:29:09;;;;;;;3.10;2.20;;;;;;;3.63;80.77;101298.20;104923;1274;75964;-68
2022/04/11 06:31:38;;;;;;;5.70;2.10;;;;;;;3.75;80.93;101298.56;104855;1275;72521;-71
2022/04/11 06:34:05;;;;;;;5.90;3.00;;;;;;;3.80;80.11;101299.41;104818;1274;71649;-70
2022/04/11 06:36:32;;;;;;;6.20;2.50;;;;;;;3.85;79.39;101295.67;104889;1274;62161;-70
2022/04/11 06:38:58;;;;;;;3.90;2.40;;;;;;;3.93;78.92;101291.41;104873;1275;61249;-71
2022/04/11 06:41:33;;;;;;;7.50;3.00;;;;;;;3.99;78.42;101293.39;104851;1274;75716;-68
2022/04/11 06:44:01;;;;;;;5.30;2.60;;;;;;;4.05;77.73;101292.23;104847;1274;72540;-71
2022/04/11 06:46:27;;;;;;;5.30;2.20;;;;;;;4.11;78.05;101289.00;104752;1274;73927;-70
2022/04/11 06:48:54;;;;;;;7.20;2.50;;;;;;;4.17;78.09;101292.70;104861;1274;61266;-69
2022/04/11 06:51:27;;;;;;;5.10;2.10;;;;;;;4.27;78.02;101291.73;104948;1275;61358;-69
2022/04/11 06:53:53;;;;;;;7.40;2.60;;;;;;;4.37;77.33;101290.08;104768;1275;74888;-71
2022/04/11 06:56:20;;;;;;;4.40;2.30;;;;;;;4.44;76.92;101289.55;104777;1275;71358;-71
2022/04/11 06:58:47;;;;;;;5.10;2.70;;;;;;;4.53;75.97;101290.11;104659;1275;73184;-72
2022/04/11 07:01:29;;;;;;;3.80;2.10;;;;;;;4.63;76.06;101290.87;104813;1274;61366;-71
2022/04/11 07:03:57;;;;;;;4.70;2.50;;;;;;;4.76;75.25;101291.28;104787;1276;61368;-71
2022/04/11 07:06:24;;;;;;;2.60;2.00;;;;;;;4.84;75.43;101287.97;104848;1274;76670;-72
2022/04/11 07:08:50;;;;;;;5.60;2.40;;;;;;;4.96;74.58;101288.66;104856;1274;70456;-71
2022/04/11 07:11:31;;;;;;;2.90;2.00;;;;;;;5.02;74.12;101285.82;104828;1277;74048;-71
2022/04/11 07:13:58;;;;;;;4.50;2.40;;;;;;;5.13;73.81;101289.53;104837;1274;61381;-70
2022/04/11 07:16:25;;;;;;;5.80;2.20;;;;;;;5.24;73.84;101288.92;104839;1274;61240;-71
2022/04/11 07:18:52;;;;;;;3.40;1.90;;;;;;;5.38;73.62;101285.33;104854;1274;72612;-67
2022/04/11 07:21:33;;;;;;;3.80;2.30;;;;;;;5.53;73.46;101280.42;104846;1272;71069;-70
2022/04/11 07:23:59;;;;;;;6.20;2.50;;;;;;;5.67;71.02;101280.67;104844;1275;74086;-70
2022/04/11 07:26:27;;;;;;;5.00;1.60;;;;;;;5.77;70.47;101279.80;104776;1274;61736;-71
2022/04/11 07:28:55;;;;;;;3.30;1.90;;;;;;;5.91;71.05;101281.12;104869;1274;61145;-70
2022/04/11 07:31:31;;;;;;;5.90;2.50;;;;;;;6.06;70.69;101282.52;104744;1275;76045;-72
2022/04/11 07:33:58;;;;;;;4.80;2.20;;;;;;;6.19;70.06;101283.30;104861;1274;72216;-71
2022/04/11 07:36:31;;;;;;;6.60;2.40;;;;;;;6.33;69.99;101283.16;104859;1274;74032;-70
2022/04/11 07:38:58;;;;;;;3.30;1.90;;;;;;;6.47;68.25;101283.05;104835;1274;62446;-71
2022/04/11 07:41:26;;;;;;;4.80;2.30;;;;;;;6.57;67.77;101281.95;104684;1274;61246;-69
2022/04/11 07:43:57;;;;;;;4.00;2.30;;;;;;;6.67;67.73;101286.20;104862;1274;76164;-71
2022/04/11 07:46:30;;;;;;;3.50;2.50;;;;;;;6.80;67.61;101281.74;104843;1274;71594;-72
2022/04/11 07:48:56;;;;;;;6.20;2.10;;;;;;;6.89;66.04;101280.73;104848;1274;74202;-68
2022/04/11 07:51:32;;;;;;;5.40;2.40;;;;;;;6.96;65.00;101283.25;104843;1274;61346;-70
2022/04/11 07:53:58;;;;;;;6.10;2.30;;;;;;;7.03;65.09;101284.09;104769;1274;61731;-69
2022/04/11 07:56:31;;;;;;;5.10;2.30;;;;;;;7.11;65.20;101288.48;104814;1274;74981;-70
2022/04/11 07:58:58;;;;;;;3.50;2.40;;;;;;;7.20;64.01;101287.44;104693;1275;69435;-70
2022/04/11 08:01:46;;;;;;;3.40;1.80;;;;;;;7.30;62.73;101282.02;104830;1274;74291;-69
2022/04/11 08:04:13;;;;;;;5.10;1.90;;;;;;;7.46;62.83;101282.14;104817;1274;62635;-69
2022/04/11 08:06:39;;;;;;;5.20;1.60;;;;;;;7.59;62.40;101283.23;104807;1274;62494;-73
2022/04/11 08:09:06;;;;;;;4.10;1.70;;;;;;;7.72;62.26;101280.23;104840;1274;61103;-72
2022/04/11 08:11:33;;;;;;;2.80;1.70;;;;;;;7.87;60.34;101283.15;104713;1274;71277;-68
2022/04/11 08:14:00;;;;;;;5.60;1.80;;;;;;;7.99;58.35;101285.01;104816;1274;61378;-73
2022/04/11 08:16:36;;;;;;;3.30;1.60;;;;;;;8.13;58.56;101279.13;104706;1274;61255;-69
2022/04/11 08:19:02;;;;;;;3.00;1.70;;;;;;;8.30;58.83;101284.35;104802;1274;61349;-71
2022/04/11 08:21:29;;;;;;;3.10;2.00;;;;;;;8.42;57.36;101287.25;104720;1277;75980;-71
2022/04/11 08:23:58;;;;;;;5.10;1.90;;;;;;;8.51;56.41;101285.33;104909;1274;72389;-70
2022/04/11 08:26:28;;;;;;;4.20;2.00;;;;;;;8.62;56.49;101285.05;104855;1274;73143;-70
2022/04/11 08:28:54;;;;;;;5.70;1.90;;;;;;;8.74;55.23;101280.73;104848;1274;63546;-72
2022/04/11 08:31:26;;;;;;;6.60;2.10;;;;;;;8.86;54.97;101284.73;104740;1274;61134;-69
2022/04/11 08:33:52;;;;;;;3.40;2.10;;;;;;;8.96;54.91;101282.75;104835;1274;74955;-72
2022/04/11 08:36:31;;;;;;;6.50;1.70;;;;;;;9.10;54.86;101283.98;104815;1274;61406;-75
2022/04/11 08:38:58;;;;;;;2.70;1.60;;;;;;;9.23;53.72;101286.48;104848;1274;73144;-70
2022/04/11 08:41:43;;;;;;;4.00;1.40;;;;;;;9.36;52.23;101288.54;104780;1274;62029;-72
2022/04/11 08:47:53;;;;;;;2.80;1.50;;;;;;;9.62;51.48;101291.50;104859;1274;76209;-72
2022/04/11 08:50:21;;;;;;;2.60;1.50;;;;;;;9.65;51.48;101294.71;104849;1274;71209;-73
2022/04/11 08:52:52;;;;;;;4.10;1.60;;;;;;;9.72;51.41;101294.73;105022;1274;72963;-72
2022/04/11 08:55:23;;;;;;;7.00;2.10;;;;;;;9.85;50.48;101291.88;104879;1274;62130;-72
2022/04/11 08:57:58;;;;;;;2.20;1.40;;;;;;;10.00;50.31;101290.98;104846;1274;61238;-71
2022/04/11 09:00:24;;;;;;;3.60;1.50;;;;;;;10.15;49.63;101291.27;104907;1274;75921;-70
2022/04/11 09:02:51;;;;;;;3.50;2.10;;;;;;;10.30;49.81;101288.01;104830;1274;71378;-71
2022/04/11 09:05:23;;;;;;;2.50;1.30;;;;;;;10.45;49.43;101286.90;104927;1274;74072;-71
2022/04/11 09:07:56;;;;;;;3.20;1.70;;;;;;;10.58;47.66;101288.77;104867;1274;62467;-71
2022/04/11 09:10:30;;;;;;;3.40;1.40;;;;;;;10.77;47.66;101288.03;104970;1274;63635;-74
2022/04/11 09:13:01;;;;;;;4.20;1.90;;;;;;;10.97;46.87;101287.13;104776;1275;74653;-75
2022/04/11 09:15:29;;;;;;;4.10;1.40;;;;;;;11.05;45.27;101282.79;104887;1274;72303;-75
2022/04/11 09:17:57;;;;;;;3.80;2.00;;;;;;;11.14;44.90;101282.84;104892;1274;72630;-74
2022/04/11 09:20:29;;;;;;;7.20;2.10;;;;;;;11.30;43.53;101281.15;104892;1274;61393;-74
2022/04/11 09:22:57;;;;;;;3.50;2.00;;;;;;;11.38;43.26;101285.95;104904;1274;62485;-74
2022/04/11 09:25:29;;;;;;;4.10;1.80;;;;;;;11.39;42.67;101282.25;104868;1276;76040;-75
2022/04/11 09:28:03;;;;;;;4.60;2.00;;;;;;;11.47;43.54;101280.57;104894;1274;71353;-71
2022/04/11 09:30:33;;;;;;;5.80;1.90;;;;;;;11.57;43.82;101277.00;104903;1274;72997;-74
2022/04/11 09:33:02;;;;;;;2.80;1.60;;;;;;;11.59;43.30;101275.03;104851;1274;61515;-74
2022/04/11 09:35:34;;;;;;;6.30;2.30;;;;;;;11.59;42.78;101271.79;105000;1274;61160;-75
2022/04/11 09:38:24;;;;;;;6.50;2.20;;;;;;;11.59;42.89;101271.52;104892;1274;74947;-73
2022/04/11 09:40:54;;;;;;;5.60;1.80;;;;;;;11.65;43.15;101268.92;104830;1274;72423;-74
2022/04/11 09:43:33;;;;;;;3.90;2.10;;;;;;;11.70;42.62;101268.09;104923;1274;72912;-72
2022/04/11 09:46:04;;;;;;;4.60;2.40;;;;;;;11.79;41.46;101266.78;104802;1277;61337;-76
2022/04/11 09:48:35;;;;;;;3.90;2.00;;;;;;;11.82;41.53;101268.55;104897;1274;61396;-74
2022/04/11 09:51:10;;;;;;;3.90;1.90;;;;;;;11.81;41.30;101266.67;104905;1274;75078;-72
2022/04/11 09:53:38;;;;;;;4.40;2.40;;;;;;;11.87;41.14;101265.42;104964;1274;70449;-74
2022/04/11 09:56:08;;;;;;;4.90;2.10;;;;;;;11.85;40.15;101268.05;104883;1275;73657;-74
2022/04/11 09:58:37;;;;;;;3.40;1.80;;;;;;;11.77;40.78;101267.68;104886;1277;61307;-75
2022/04/11 10:01:07;;;;;;;6.70;2.20;;;;;;;11.70;41.73;101266.02;104968;1274;61202;-72
2022/04/11 10:03:35;;;;;;;7.90;2.90;;;;;;;11.63;40.62;101266.61;104907;1274;74636;-74
2022/04/11 10:06:05;;;;;;;4.60;2.40;;;;;;;11.57;39.87;101264.27;104902;1274;72423;-74
2022/04/11 10:08:33;;;;;;;3.30;2.20;;;;;;;11.55;40.17;101260.96;104939;1274;72868;-75
2022/04/11 10:11:01;;;;;;;2.80;1.80;;;;;;;11.57;40.99;101255.58;104978;1274;61717;-76
2022/04/11 10:13:36;;;;;;;4.30;2.20;;;;;;;11.60;40.66;101253.31;104922;1274;61373;-74
2022/04/11 10:16:06;;;;;;;4.60;2.50;;;;;;;11.61;40.89;101245.55;104899;1274;74664;-75
2022/04/11 10:18:34;;;;;;;4.40;2.40;;;;;;;11.67;41.37;101249.31;104834;1274;72390;-72
2022/04/11 10:21:10;;;;;;;7.10;2.80;;;;;;;11.73;39.81;101245.62;104928;1274;74046;-74
2022/04/11 10:24:16;;;;;;;6.60;2.60;;;;;;;11.79;39.97;101244.82;104874;1274;61268;-73
2022/04/11 10:26:55;;;;;;;5.30;2.80;;;;;;;11.84;40.69;101239.72;104917;1274;61648;-75
2022/04/11 10:29:37;;;;;;;4.30;2.60;;;;;;;11.89;39.70;101233.15;105036;1274;75055;-76
2022/04/11 10:32:05;;;;;;;4.50;2.50;;;;;;;11.94;40.19;101231.65;105088;1274;71367;-74
2022/04/11 10:34:45;;;;;;;5.40;2.30;;;;;;;12.00;40.62;101230.34;104967;1274;72745;-75
2022/04/11 10:37:16;;;;;;;6.30;2.60;;;;;;;12.04;39.26;101228.09;104867;1274;61243;-75
2022/04/11 10:39:44;;;;;;;5.10;2.00;;;;;;;12.09;40.08;101222.63;104837;1277;61236;-75
2022/04/11 10:42:16;;;;;;;4.00;2.40;;;;;;;12.11;39.41;101222.76;104893;1274;74423;-75
2022/04/11 10:44:54;;;;;;;4.90;2.70;;;;;;;12.14;39.80;101218.52;104947;1274;70105;-77
2022/04/11 10:47:26;;;;;;;3.80;2.30;;;;;;;12.26;41.09;101217.80;104826;1274;71964;-74
2022/04/11 10:49:53;;;;;;;6.30;3.10;;;;;;;12.44;39.57;101213.49;104946;1274;61907;-72
2022/04/11 10:52:39;;;;;;;4.40;3.00;;;;;;;12.49;38.69;101209.87;104891;1274;61681;-72
2022/04/11 10:55:58;;;;;;;5.50;2.60;;;;;;;12.59;40.65;101211.05;104859;1274;76142;-74
2022/04/11 10:58:48;;;;;;;4.40;2.40;;;;;;;12.83;39.51;101212.95;104609;1274;70308;-74
2022/04/11 11:01:46;;;;;;;5.50;3.10;;;;;;;12.97;38.24;101208.30;104899;1274;72819;-75
2022/04/11 11:04:42;;;;;;;7.20;3.60;;;;;;;12.97;37.21;101206.30;104889;1274;61384;-73
2022/04/11 11:07:23;;;;;;;5.30;3.10;;;;;;;12.83;36.31;101206.04;104860;1274;61467;-76
2022/04/11 11:09:58;;;;;;;5.40;3.00;;;;;;;12.71;37.57;101199.77;104950;1274;76108;-71
2022/04/11 11:12:26;;;;;;;6.60;3.30;;;;;;;12.69;37.11;101198.77;104996;1274;72580;-74
2022/04/11 11:14:54;;;;;;;5.30;3.10;;;;;;;12.67;37.71;101199.16;104979;1274;74119;-74
2022/04/11 11:17:21;;;;;;;6.70;2.80;;;;;;;12.74;38.14;101199.98;104903;1274;61837;-71
2022/04/11 11:20:06;;;;;;;4.90;2.10;;;;;;;12.78;36.93;101205.57;104890;1274;61239;-73
2022/04/11 11:22:35;;;;;;;6.50;2.90;;;;;;;12.80;36.89;101196.29;104930;1274;75689;-73
2022/04/11 11:25:18;;;;;;;4.40;3.00;;;;;;;12.80;36.46;101193.05;104913;1277;72035;-73
2022/04/11 11:27:46;;;;;;;3.70;1.70;;;;;;;12.88;37.70;101188.60;104869;1274;73970;-70
2022/04/11 11:30:14;;;;;;;5.70;2.70;;;;;;;13.03;38.38;101184.11;104896;1274;61799;-75
2022/04/11 11:32:42;;;;;;;5.60;2.60;;;;;;;13.25;37.62;101181.08;104993;1274;62041;-74
2022/04/11 11:35:09;;;;;;;4.10;2.60;;;;;;;13.41;37.63;101177.09;104868;1275;76006;-74
2022/04/11 11:37:36;;;;;;;5.30;2.50;;;;;;;13.51;37.01;101169.52;104900;1274;72537;-75
2022/04/11 11:40:08;;;;;;;5.90;3.10;;;;;;;13.60;36.59;101167.89;104895;1274;72906;-73
2022/04/11 11:42:37;;;;;;;4.40;2.20;;;;;;;13.72;37.27;101161.79;104875;1274;61275;-75